GOV weather

Gove Airport
Nhulunbuy, Northern Territory, Australia

Public forecast

Using degrees Celsius for public forecast. Weather courtesy of forecast.io.

METAR (pilot weather report)

Retrieved 2019/04/22 21:30 UTC (6 minutes ago):

YPGV 222130Z AUTO 13005KT 9999 // ////// 24/23 Q1011 RF00.0/003.6

TAF (pilot weather forecast)

Forecast is more than 12 hours old.

Retrieved 2019/04/22 08:00 UTC (14 hours ago):

TAF YPGV 220641Z 2208/2220 12010KT 9999 SCT025 FM221200 13006KT 9999 FEW020